Amlin, Ohio
Current Conditions -  °F | °C
As of 7:53 AM on Tuesday 21 Oct 2014 (Local Time) from KOSU Reporting Station
Overcast Overcast  
Wind Chill: 45°   Ceiling: 1100
Heat Index: 49°   Visibility: 10mi
Dew Point: 46°   Wind: 8mph
Humidity: 90%   Direction: 340°NNW
Pressure: 29.92"   Gusts: NA
Location:  40.08°N, 83.18°W
Report Text: KOSU 211153Z 34007KT 10SM OVC011 09/08 A2992 RMK AO2 RAB09E46 CIG 008V015 SLP133 P0003 60003 70021 T00940078 10100 20072 53011
Loading
Personal Weather Stations






























Interactive Weather Map
Tropical Storm Tracking
New forecast layout! Learn more

10-Day Weather Forecast

Advertisements
Track Severe Weather on mobile